Time,TemperatureF,DewpointF,PressureIn,WindDirection,WindDirectionDegrees,WindSpeedMPH,WindSpeedGustMPH,Humidity,HourlyPrecipIn,Conditions,Clouds,dailyrainin,SolarRadiationWatts/m^2,SoftwareType,DateUTC
2013-11-11 00:00:00,42.0,39.3,30.01,SSW,196,6.0,13.0,90,0.00,RA,,0.00,0.0,WeatherDisplay:10.37,2013-11-11 00:00:00,
2013-11-11 00:05:00,42.2,39.5,30.00,South,184,2.0,8.0,90,0.00,RA,,0.00,0.0,WeatherDisplay:10.37,2013-11-11 00:05:00,
2013-11-11 00:10:00,42.2,39.5,30.00,South,187,3.0,12.0,90,0.00,RA,,0.00,0.0,WeatherDisplay:10.37,2013-11-11 00:10:00,
2013-11-11 00:20:00,42.3,39.6,29.99,South,188,7.0,16.0,90,0.00,CLR,,0.00,0.0,WeatherDisplay:10.37,2013-11-11 00:20:00,
2013-11-11 00:30:00,42.5,39.5,29.99,SSW,201,3.0,12.0,89,0.00,CLR,,0.00,0.0,WeatherDisplay:10.37,2013-11-11 00:30:00,
2013-11-11 00:35:00,42.5,39.2,29.99,SSW,201,3.0,9.0,88,0.00,CLR,,0.00,0.0,WeatherDisplay:10.37,2013-11-11 00:35:00,
2013-11-11 00:40:00,42.6,39.3,29.98,SSW,197,5.0,10.0,88,0.00,CLR,,0.00,0.0,WeatherDisplay:10.37,2013-11-11 00:40:00,
2013-11-11 00:50:00,42.6,39.3,29.97,SSW,194,6.0,15.0,88,0.00,CLR,,0.00,0.0,WeatherDisplay:10.37,2013-11-11 00:50:00,
2013-11-11 00:55:00,42.6,39.0,29.97,South,186,3.0,16.0,87,0.00,CLR,,0.00,0.0,WeatherDisplay:10.37,2013-11-11 00:55:00,
2013-11-11 01:00:00,42.6,39.0,29.97,South,182,2.0,10.0,87,0.00,CLR,,0.00,0.0,WeatherDisplay:10.37,2013-11-11 01:00:00,
2013-11-11 01:05:00,42.5,39.2,29.96,SSW,192,3.0,9.0,88,0.00,CLR,,0.00,0.0,WeatherDisplay:10.37,2013-11-11 01:05:00,
2013-11-11 01:10:00,42.4,39.1,29.95,SSW,192,3.0,13.0,88,0.00,CLR,,0.00,0.0,WeatherDisplay:10.37,2013-11-11 01:10:00,
2013-11-11 01:15:00,42.4,39.1,29.95,SSW,192,5.0,14.0,88,0.00,CLR,,0.00,0.0,WeatherDisplay:10.37,2013-11-11 01:15:00,
2013-11-11 01:20:00,42.3,39.0,29.95,South,191,5.0,12.0,88,0.00,CLR,,0.00,0.0,WeatherDisplay:10.37,2013-11-11 01:20:00,
2013-11-11 01:25:00,42.2,38.9,29.95,South,171,2.0,10.0,88,0.00,CLR,,0.00,0.0,WeatherDisplay:10.37,2013-11-11 01:25:00,
2013-11-11 01:30:00,42.1,39.1,29.94,SSE,152,6.0,15.0,89,0.01,RA,,0.01,0.0,WeatherDisplay:10.37,2013-11-11 01:30:00,
2013-11-11 01:35:00,41.9,38.9,29.93,SSE,164,5.0,13.0,89,0.00,RA,,0.01,0.0,WeatherDisplay:10.37,2013-11-11 01:35:00,
2013-11-11 01:40:00,41.9,38.9,29.93,SSW,192,6.0,13.0,89,0.00,RA,,0.01,0.0,WeatherDisplay:10.37,2013-11-11 01:40:00,
2013-11-11 01:45:00,41.9,38.9,29.93,SSW,200,2.0,14.0,89,0.00,CLR,,0.01,0.0,WeatherDisplay:10.37,2013-11-11 01:45:00,
2013-11-11 01:50:00,41.9,39.2,29.92,SSW,192,3.0,10.0,90,0.00,CLR,,0.01,0.0,WeatherDisplay:10.37,2013-11-11 01:50:00,
2013-11-11 02:00:00,41.9,39.2,29.92,South,182,5.0,13.0,90,0.00,CLR,,0.01,0.0,WeatherDisplay:10.37,2013-11-11 02:00:00,
2013-11-11 02:05:00,42.0,39.6,29.92,SSE,166,6.0,12.0,91,0.00,CLR,,0.01,0.0,WeatherDisplay:10.37,2013-11-11 02:05:00,
2013-11-11 02:10:00,42.0,39.5,29.92,South,175,5.0,12.0,91,0.00,CLR,,0.01,0.0,WeatherDisplay:10.37,2013-11-11 02:10:00,
2013-11-11 02:15:00,41.9,39.5,29.91,South,176,5.0,14.0,91,0.00,CLR,,0.01,0.0,WeatherDisplay:10.37,2013-11-11 02:15:00,
2013-11-11 02:20:00,41.8,39.1,29.91,South,174,5.0,12.0,90,0.01,RA,,0.02,0.0,WeatherDisplay:10.37,2013-11-11 02:20:00,
2013-11-11 02:25:00,41.8,39.1,29.90,South,188,6.0,16.0,90,0.00,RA,,0.02,0.0,WeatherDisplay:10.37,2013-11-11 02:25:00,
2013-11-11 02:30:00,41.7,39.0,29.90,South,191,5.0,16.0,90,0.00,RA,,0.02,0.0,WeatherDisplay:10.37,2013-11-11 02:30:00,
2013-11-11 02:40:00,41.7,39.0,29.88,South,185,8.0,18.0,90,0.00,CLR,,0.02,0.0,WeatherDisplay:10.37,2013-11-11 02:40:00,
2013-11-11 02:45:00,41.7,39.0,29.88,South,188,3.0,8.0,90,0.00,CLR,,0.02,0.0,WeatherDisplay:10.37,2013-11-11 02:45:00,
2013-11-11 02:50:00,41.7,39.0,29.88,SSE,167,5.0,12.0,90,0.00,CLR,,0.02,0.0,WeatherDisplay:10.37,2013-11-11 02:50:00,
2013-11-11 02:55:00,41.7,39.0,29.88,South,191,7.0,14.0,90,0.00,CLR,,0.02,0.0,WeatherDisplay:10.37,2013-11-11 02:55:00,
2013-11-11 03:00:00,41.7,39.0,29.88,SSW,192,7.0,16.0,90,0.00,CLR,,0.02,0.0,WeatherDisplay:10.37,2013-11-11 03:00:00,
2013-11-11 03:05:00,41.8,39.1,29.87,SSW,193,7.0,12.0,90,0.00,CLR,,0.02,0.0,WeatherDisplay:10.37,2013-11-11 03:05:00,
2013-11-11 03:10:00,41.9,39.5,29.87,SSW,203,5.0,14.0,91,0.00,CLR,,0.02,0.0,WeatherDisplay:10.37,2013-11-11 03:10:00,
2013-11-11 03:20:00,42.2,39.8,29.87,SSW,194,8.0,16.0,91,0.00,CLR,,0.02,0.0,WeatherDisplay:10.37,2013-11-11 03:20:00,
2013-11-11 03:25:00,42.4,40.0,29.87,South,190,7.0,21.0,91,0.00,CLR,,0.02,0.0,WeatherDisplay:10.37,2013-11-11 03:25:00,
2013-11-11 03:30:00,42.5,40.1,29.87,South,189,8.0,15.0,91,0.00,CLR,,0.02,0.0,WeatherDisplay:10.37,2013-11-11 03:30:00,
2013-11-11 03:35:00,42.5,40.1,29.87,South,190,7.0,16.0,91,0.00,CLR,,0.02,0.0,WeatherDisplay:10.37,2013-11-11 03:35:00,
2013-11-11 03:40:00,42.6,40.1,29.87,South,188,3.0,14.0,91,0.00,CLR,,0.02,0.0,WeatherDisplay:10.37,2013-11-11 03:40:00,
2013-11-11 03:50:00,42.5,40.3,29.86,South,182,6.0,12.0,92,0.00,CLR,,0.02,0.0,WeatherDisplay:10.37,2013-11-11 03:50:00,
2013-11-11 04:00:00,42.5,40.6,29.84,SSE,165,6.0,9.0,93,0.00,RA,,0.02,0.0,WeatherDisplay:10.37,2013-11-11 04:00:00,
2013-11-11 04:05:00,42.5,40.6,29.84,SSE,156,3.0,9.0,93,0.00,RA,,0.02,0.0,WeatherDisplay:10.37,2013-11-11 04:05:00,
2013-11-11 04:10:00,42.5,40.9,29.84,SSE,162,3.0,9.0,94,0.00,CLR,,0.02,0.0,WeatherDisplay:10.37,2013-11-11 04:10:00,
2013-11-11 04:15:00,42.6,40.9,29.84,South,184,7.0,14.0,94,0.00,CLR,,0.02,0.0,WeatherDisplay:10.37,2013-11-11 04:15:00,
2013-11-11 04:20:00,42.7,41.1,29.84,South,190,2.0,13.0,94,0.00,CLR,,0.02,0.0,WeatherDisplay:10.37,2013-11-11 04:20:00,
2013-11-11 04:25:00,42.8,41.2,29.83,South,187,5.0,12.0,94,0.00,CLR,,0.02,0.0,WeatherDisplay:10.37,2013-11-11 04:25:00,
2013-11-11 04:30:00,42.9,41.3,29.83,South,185,5.0,18.0,94,0.00,CLR,,0.02,0.0,WeatherDisplay:10.37,2013-11-11 04:30:00,
2013-11-11 04:40:00,43.3,41.9,29.83,SSW,197,6.0,12.0,95,0.00,CLR,,0.02,0.0,WeatherDisplay:10.37,2013-11-11 04:40:00,
2013-11-11 04:45:00,43.4,42.1,29.83,South,189,7.0,13.0,95,0.00,CLR,,0.02,0.0,WeatherDisplay:10.37,2013-11-11 04:45:00,
2013-11-11 04:50:00,43.5,41.9,29.83,SSW,198,7.0,14.0,94,0.00,CLR,,0.02,0.0,WeatherDisplay:10.37,2013-11-11 04:50:00,
2013-11-11 04:55:00,43.7,42.3,29.83,SSW,212,3.0,12.0,95,0.00,CLR,,0.02,0.0,WeatherDisplay:10.37,2013-11-11 04:55:00,
2013-11-11 05:00:00,43.8,42.1,29.83,SSW,199,6.0,12.0,94,0.00,CLR,,0.02,0.0,WeatherDisplay:10.37,2013-11-11 05:00:00,
2013-11-11 05:05:00,43.9,42.3,29.83,South,188,7.0,15.0,94,0.00,CLR,,0.02,0.0,WeatherDisplay:10.37,2013-11-11 05:05:00,
2013-11-11 05:10:00,44.0,42.4,29.83,SSW,204,7.0,12.0,94,0.00,CLR,,0.02,0.0,WeatherDisplay:10.37,2013-11-11 05:10:00,
2013-11-11 05:20:00,44.3,42.7,29.82,South,189,5.0,14.0,94,0.00,CLR,,0.02,0.0,WeatherDisplay:10.37,2013-11-11 05:20:00,
2013-11-11 05:25:00,44.5,42.9,29.82,SSW,192,6.0,14.0,94,0.00,CLR,,0.02,0.0,WeatherDisplay:10.37,2013-11-11 05:25:00,
2013-11-11 05:30:00,44.6,43.0,29.82,SSW,194,2.0,16.0,94,0.00,CLR,,0.02,0.0,WeatherDisplay:10.37,2013-11-11 05:30:00,
2013-11-11 05:35:00,44.7,43.1,29.82,South,190,6.0,10.0,94,0.00,CLR,,0.02,0.0,WeatherDisplay:10.37,2013-11-11 05:35:00,
2013-11-11 05:40:00,44.8,43.2,29.82,South,181,3.0,6.0,94,0.00,CLR,,0.02,0.0,WeatherDisplay:10.37,2013-11-11 05:40:00,
2013-11-11 05:45:00,44.9,43.3,29.82,South,172,6.0,12.0,94,0.00,CLR,,0.02,0.0,WeatherDisplay:10.37,2013-11-11 05:45:00,
2013-11-11 05:50:00,45.0,43.4,29.82,South,189,5.0,10.0,94,0.00,CLR,,0.02,0.0,WeatherDisplay:10.37,2013-11-11 05:50:00,
2013-11-11 05:55:00,45.2,43.6,29.82,SSW,205,6.0,15.0,94,0.00,CLR,,0.02,0.0,WeatherDisplay:10.37,2013-11-11 05:55:00,
2013-11-11 06:05:00,45.6,44.0,29.81,SSW,197,7.0,16.0,94,0.00,CLR,,0.02,0.0,WeatherDisplay:10.37,2013-11-11 06:05:00,
2013-11-11 06:10:00,45.8,44.1,29.81,SSW,194,7.0,14.0,94,0.00,CLR,,0.02,0.0,WeatherDisplay:10.37,2013-11-11 06:10:00,
2013-11-11 06:15:00,46.0,44.4,29.81,South,181,7.0,17.0,94,0.00,CLR,,0.02,0.0,WeatherDisplay:10.37,2013-11-11 06:15:00,
2013-11-11 06:25:00,46.2,44.6,29.81,SSW,207,6.0,12.0,94,0.00,CLR,,0.02,0.0,WeatherDisplay:10.37,2013-11-11 06:25:00,
2013-11-11 06:30:00,46.4,44.8,29.81,SSW,207,8.0,14.0,94,0.00,CLR,,0.02,0.0,WeatherDisplay:10.37,2013-11-11 06:30:00,
2013-11-11 06:35:00,46.5,44.9,29.81,SSW,205,6.0,12.0,94,0.00,CLR,,0.02,0.0,WeatherDisplay:10.37,2013-11-11 06:35:00,
2013-11-11 06:40:00,46.7,45.1,29.81,SSW,199,6.0,10.0,94,0.00,CLR,,0.02,0.0,WeatherDisplay:10.37,2013-11-11 06:40:00,
2013-11-11 06:50:00,46.9,45.0,29.81,SSW,200,8.0,14.0,93,0.00,CLR,,0.02,0.0,WeatherDisplay:10.37,2013-11-11 06:50:00,
2013-11-11 06:55:00,47.0,45.4,29.81,SW,218,7.0,15.0,94,0.00,CLR,,0.02,0.0,WeatherDisplay:10.37,2013-11-11 06:55:00,
2013-11-11 07:05:00,47.2,45.6,29.81,SSW,200,7.0,16.0,94,0.00,CLR,,0.02,0.0,WeatherDisplay:10.37,2013-11-11 07:05:00,
2013-11-11 07:10:00,47.2,45.6,29.81,SSW,207,9.0,18.0,94,0.00,CLR,,0.02,0.0,WeatherDisplay:10.37,2013-11-11 07:10:00,
2013-11-11 07:15:00,47.4,45.8,29.81,SSW,208,6.0,17.0,94,0.00,OVC,,0.02,0.0,WeatherDisplay:10.37,2013-11-11 07:15:00,
2013-11-11 07:20:00,47.5,45.8,29.81,SSW,211,7.0,14.0,94,0.00,OVC,,0.02,0.0,WeatherDisplay:10.37,2013-11-11 07:20:00,
2013-11-11 07:25:00,47.6,46.0,29.81,SSW,202,8.0,16.0,94,0.00,OVC,,0.02,0.0,WeatherDisplay:10.37,2013-11-11 07:25:00,
2013-11-11 07:30:00,47.7,46.1,29.81,SSW,205,7.0,15.0,94,0.00,OVC,,0.02,0.0,WeatherDisplay:10.37,2013-11-11 07:30:00,
2013-11-11 07:35:00,47.8,46.2,29.81,SSW,203,9.0,20.0,94,0.00,OVC,,0.02,0.0,WeatherDisplay:10.37,2013-11-11 07:35:00,
2013-11-11 07:40:00,47.9,46.3,29.81,SSW,201,6.0,18.0,94,0.00,OVC,,0.02,0.0,WeatherDisplay:10.37,2013-11-11 07:40:00,
2013-11-11 07:45:00,47.9,46.3,29.81,SSW,205,5.0,10.0,94,0.00,OVC,,0.02,0.0,WeatherDisplay:10.37,2013-11-11 07:45:00,
2013-11-11 07:50:00,47.9,46.3,29.81,SSW,207,7.0,16.0,94,0.01,RA,,0.03,0.0,WeatherDisplay:10.37,2013-11-11 07:50:00,
2013-11-11 07:55:00,48.0,46.4,29.81,SSW,204,7.0,20.0,94,0.00,RA,,0.03,0.0,WeatherDisplay:10.37,2013-11-11 07:55:00,
2013-11-11 08:00:00,48.0,46.4,29.81,SSW,201,6.0,14.0,94,0.00,RA,,0.03,5.0,WeatherDisplay:10.37,2013-11-11 08:00:00,
2013-11-11 08:05:00,48.0,46.7,29.81,South,188,7.0,14.0,95,0.00,BKN,,0.03,5.0,WeatherDisplay:10.37,2013-11-11 08:05:00,
2013-11-11 08:10:00,48.1,46.7,29.81,South,188,5.0,13.0,95,0.00,BKN,,0.03,7.0,WeatherDisplay:10.37,2013-11-11 08:10:00,
2013-11-11 08:20:00,48.2,46.8,29.81,SSW,194,5.0,14.0,95,0.00,BKN,,0.03,11.0,WeatherDisplay:10.37,2013-11-11 08:20:00,
2013-11-11 08:25:00,48.2,46.8,29.82,SSW,193,5.0,10.0,95,0.00,BKN,,0.03,11.0,WeatherDisplay:10.37,2013-11-11 08:25:00,
2013-11-11 08:30:00,48.3,47.0,29.82,South,184,5.0,12.0,95,0.00,BKN,,0.03,12.0,WeatherDisplay:10.37,2013-11-11 08:30:00,
2013-11-11 08:35:00,48.6,47.2,29.83,SSW,197,6.0,12.0,95,0.00,BKN,,0.03,14.0,WeatherDisplay:10.37,2013-11-11 08:35:00,
2013-11-11 08:40:00,48.9,47.5,29.82,SSW,197,3.0,13.0,95,0.00,BKN,,0.03,19.0,WeatherDisplay:10.37,2013-11-11 08:40:00,
2013-11-11 08:45:00,49.2,48.1,29.83,SSW,199,6.0,10.0,96,0.00,BKN,,0.03,30.0,WeatherDisplay:10.37,2013-11-11 08:45:00,
2013-11-11 08:50:00,49.5,48.4,29.83,SSW,201,6.0,10.0,96,0.00,BKN,,0.03,30.0,WeatherDisplay:10.37,2013-11-11 08:50:00,
2013-11-11 08:55:00,49.7,48.6,29.83,SSW,209,9.0,18.0,96,0.00,BKN,,0.03,35.0,WeatherDisplay:10.37,2013-11-11 08:55:00,
2013-11-11 09:00:00,50.0,48.9,29.83,SSW,206,8.0,14.0,96,0.00,BKN,,0.03,47.0,WeatherDisplay:10.37,2013-11-11 09:00:00,
2013-11-11 09:05:00,50.1,49.0,29.83,SSW,210,6.0,12.0,96,0.00,BKN,,0.03,49.0,WeatherDisplay:10.37,2013-11-11 09:05:00,
2013-11-11 09:10:00,50.1,48.7,29.83,SSW,199,8.0,14.0,95,0.00,BKN,,0.03,30.0,WeatherDisplay:10.37,2013-11-11 09:10:00,
2013-11-11 09:20:00,50.0,48.6,29.82,SSW,210,5.0,9.0,95,0.00,BKN,,0.03,65.0,WeatherDisplay:10.37,2013-11-11 09:20:00,
2013-11-11 09:25:00,50.1,49.0,29.82,SSW,211,3.0,13.0,96,0.00,BKN,,0.03,28.0,WeatherDisplay:10.37,2013-11-11 09:25:00,
2013-11-11 09:30:00,50.1,49.0,29.82,SSW,209,5.0,13.0,96,0.00,BKN,,0.03,28.0,WeatherDisplay:10.37,2013-11-11 09:30:00,
2013-11-11 09:35:00,50.1,49.0,29.83,SSW,205,6.0,11.0,96,0.00,BKN,,0.03,28.0,WeatherDisplay:10.37,2013-11-11 09:35:00,
2013-11-11 09:40:00,50.2,49.1,29.83,SSW,212,8.0,13.0,96,0.00,BKN,,0.03,21.0,WeatherDisplay:10.37,2013-11-11 09:40:00,
2013-11-11 09:45:00,50.4,49.3,29.83,SW,215,6.0,13.0,96,0.00,BKN,,0.03,21.0,WeatherDisplay:10.37,2013-11-11 09:45:00,
2013-11-11 09:50:00,50.5,49.4,29.83,SW,214,5.0,14.0,96,0.00,BKN,,0.03,21.0,WeatherDisplay:10.37,2013-11-11 09:50:00,
2013-11-11 09:55:00,50.6,49.5,29.83,SW,214,7.0,13.0,96,0.00,BKN,,0.03,37.0,WeatherDisplay:10.37,2013-11-11 09:55:00,
2013-11-11 10:00:00,50.8,49.7,29.84,SW,218,6.0,12.0,96,0.00,BKN,,0.03,35.0,WeatherDisplay:10.37,2013-11-11 10:00:00,
2013-11-11 10:05:00,50.9,49.8,29.84,SW,216,6.0,12.0,96,0.00,BKN,,0.03,40.0,WeatherDisplay:10.37,2013-11-11 10:05:00,
2013-11-11 10:10:00,51.0,50.2,29.84,SW,215,6.0,12.0,97,0.00,BKN,,0.03,47.0,WeatherDisplay:10.37,2013-11-11 10:10:00,
2013-11-11 10:15:00,51.2,50.4,29.84,SW,218,8.0,13.0,97,0.00,BKN,,0.03,62.0,WeatherDisplay:10.37,2013-11-11 10:15:00,
2013-11-11 10:20:00,51.5,50.7,29.85,SW,219,7.0,12.0,97,0.00,BKN,,0.03,70.0,WeatherDisplay:10.37,2013-11-11 10:20:00,
2013-11-11 10:25:00,51.9,51.0,29.85,SW,218,8.0,13.0,97,0.00,BKN,,0.03,88.0,WeatherDisplay:10.37,2013-11-11 10:25:00,
2013-11-11 10:30:00,52.2,51.4,29.85,SW,224,8.0,14.0,97,0.00,BKN,,0.03,113.0,WeatherDisplay:10.37,2013-11-11 10:30:00,
2013-11-11 10:35:00,52.5,51.7,29.86,SW,226,6.0,12.0,97,0.00,SCT,,0.03,113.0,WeatherDisplay:10.37,2013-11-11 10:35:00,
2013-11-11 10:40:00,53.0,52.4,29.86,SW,222,9.0,20.0,98,0.00,SCT,,0.03,116.0,WeatherDisplay:10.37,2013-11-11 10:40:00,
2013-11-11 10:50:00,53.4,52.6,29.86,SW,226,6.0,14.0,97,0.00,BKN,,0.03,81.0,WeatherDisplay:10.37,2013-11-11 10:50:00,
2013-11-11 10:55:00,53.5,52.7,29.87,SW,228,9.0,15.0,97,0.00,BKN,,0.03,76.0,WeatherDisplay:10.37,2013-11-11 10:55:00,
2013-11-11 11:00:00,53.5,52.7,29.87,SW,223,8.0,15.0,97,0.00,BKN,,0.03,72.0,WeatherDisplay:10.37,2013-11-11 11:00:00,
2013-11-11 11:10:00,53.6,52.8,29.87,SW,232,7.0,13.0,97,0.01,RA,,0.04,81.0,WeatherDisplay:10.37,2013-11-11 11:10:00,
2013-11-11 11:15:00,53.6,52.8,29.87,SW,236,6.0,14.0,97,0.00,RA,,0.04,46.0,WeatherDisplay:10.37,2013-11-11 11:15:00,
2013-11-11 11:20:00,53.6,52.8,29.87,WSW,237,8.0,21.0,97,0.00,RA,,0.04,46.0,WeatherDisplay:10.37,2013-11-11 11:20:00,
2013-11-11 11:25:00,53.6,52.7,29.88,SW,236,8.0,14.0,97,0.00,BKN,,0.04,53.0,WeatherDisplay:10.37,2013-11-11 11:25:00,
2013-11-11 11:30:00,53.5,52.7,29.88,WSW,240,9.0,14.0,97,0.00,BKN,,0.04,84.0,WeatherDisplay:10.37,2013-11-11 11:30:00,
2013-11-11 11:40:00,53.4,52.6,29.89,WSW,238,10.0,16.0,97,0.00,BKN,,0.04,56.0,WeatherDisplay:10.37,2013-11-11 11:40:00,
2013-11-11 11:45:00,53.0,51.9,29.90,West,261,12.0,17.0,96,0.00,BKN,,0.04,91.0,WeatherDisplay:10.37,2013-11-11 11:45:00,
2013-11-11 11:50:00,52.6,51.5,29.90,West,275,9.0,17.0,96,0.00,BKN,,0.04,81.0,WeatherDisplay:10.37,2013-11-11 11:50:00,
2013-11-11 11:55:00,52.2,51.1,29.90,WNW,282,8.0,15.0,96,0.00,BKN,,0.04,90.0,WeatherDisplay:10.37,2013-11-11 11:55:00,
2013-11-11 12:00:00,51.9,50.8,29.91,West,273,6.0,14.0,96,0.00,BKN,,0.04,125.0,WeatherDisplay:10.37,2013-11-11 12:00:00,
2013-11-11 12:05:00,51.7,50.6,29.91,West,260,8.0,17.0,96,0.00,BKN,,0.04,107.0,WeatherDisplay:10.37,2013-11-11 12:05:00,
2013-11-11 12:10:00,51.6,50.2,29.91,West,268,7.0,18.0,95,0.00,BKN,,0.04,111.0,WeatherDisplay:10.37,2013-11-11 12:10:00,
2013-11-11 12:15:00,51.6,50.2,29.92,West,279,9.0,14.0,95,0.00,BKN,,0.04,146.0,WeatherDisplay:10.37,2013-11-11 12:15:00,
2013-11-11 12:20:00,51.6,50.2,29.92,West,266,5.0,17.0,95,0.00,SCT,,0.04,199.0,WeatherDisplay:10.37,2013-11-11 12:20:00,
2013-11-11 12:25:00,51.8,50.1,29.92,WSW,255,7.0,13.0,94,0.00,SCT,,0.04,188.0,WeatherDisplay:10.37,2013-11-11 12:25:00,
2013-11-11 12:35:00,51.8,49.5,29.92,West,275,9.0,16.0,92,0.00,SCT,,0.04,220.0,WeatherDisplay:10.37,2013-11-11 12:35:00,
2013-11-11 12:40:00,51.7,49.2,29.92,WSW,256,9.0,14.0,91,0.00,BKN,,0.04,84.0,WeatherDisplay:10.37,2013-11-11 12:40:00,
2013-11-11 12:45:00,51.6,48.8,29.92,SW,235,9.0,17.0,90,0.00,BKN,,0.04,239.0,WeatherDisplay:10.37,2013-11-11 12:45:00,
2013-11-11 12:50:00,51.7,48.9,29.92,WSW,237,7.0,14.0,90,0.00,SCT,,0.04,253.0,WeatherDisplay:10.37,2013-11-11 12:50:00,
2013-11-11 12:55:00,51.9,48.8,29.92,WSW,245,8.0,16.0,89,0.00,CLR,,0.04,135.0,WeatherDisplay:10.37,2013-11-11 12:55:00,
2013-11-11 13:00:00,52.0,48.9,29.92,WSW,246,8.0,17.0,89,0.00,SCT,,0.04,155.0,WeatherDisplay:10.37,2013-11-11 13:00:00,
2013-11-11 13:05:00,52.1,49.0,29.92,WSW,255,6.0,15.0,89,0.00,SCT,,0.04,81.0,WeatherDisplay:10.37,2013-11-11 13:05:00,
2013-11-11 13:10:00,52.1,48.7,29.92,West,264,6.0,14.0,88,0.00,SCT,,0.04,54.0,WeatherDisplay:10.37,2013-11-11 13:10:00,
2013-11-11 13:20:00,52.0,48.5,29.92,WSW,243,9.0,17.0,88,0.00,BKN,,0.04,251.0,WeatherDisplay:10.37,2013-11-11 13:20:00,
2013-11-11 13:25:00,52.2,48.4,29.92,WSW,249,8.0,18.0,87,0.00,FEW,,0.04,197.0,WeatherDisplay:10.37,2013-11-11 13:25:00,
2013-11-11 13:30:00,52.3,48.2,29.92,West,271,9.0,17.0,86,0.00,CLR,,0.04,202.0,WeatherDisplay:10.37,2013-11-11 13:30:00,
2013-11-11 13:35:00,52.3,47.9,29.92,WSW,245,8.0,17.0,85,0.00,CLR,,0.04,190.0,WeatherDisplay:10.37,2013-11-11 13:35:00,
2013-11-11 13:40:00,52.3,47.9,29.92,SW,233,8.0,15.0,85,0.00,CLR,,0.04,188.0,WeatherDisplay:10.37,2013-11-11 13:40:00,
2013-11-11 13:50:00,52.3,47.6,29.93,WSW,247,7.0,13.0,84,0.00,CLR,,0.04,171.0,WeatherDisplay:10.37,2013-11-11 13:50:00,
2013-11-11 13:55:00,52.2,47.5,29.93,West,269,5.0,12.0,84,0.00,CLR,,0.04,167.0,WeatherDisplay:10.37,2013-11-11 13:55:00,
2013-11-11 14:00:00,52.3,47.6,29.93,WSW,256,7.0,13.0,84,0.00,CLR,,0.04,171.0,WeatherDisplay:10.37,2013-11-11 14:00:00,
2013-11-11 14:05:00,52.2,47.2,29.93,West,269,6.0,13.0,83,0.00,FEW,,0.04,109.0,WeatherDisplay:10.37,2013-11-11 14:05:00,
2013-11-11 14:10:00,52.0,47.3,29.94,West,280,3.0,12.0,84,0.00,SCT,,0.04,91.0,WeatherDisplay:10.37,2013-11-11 14:10:00,
2013-11-11 14:15:00,51.8,47.1,29.94,WSW,257,6.0,12.0,84,0.00,SCT,,0.04,79.0,WeatherDisplay:10.37,2013-11-11 14:15:00,
2013-11-11 14:20:00,51.5,46.8,29.95,WSW,237,6.0,14.0,84,0.00,BKN,,0.04,62.0,WeatherDisplay:10.37,2013-11-11 14:20:00,
2013-11-11 14:30:00,51.4,47.1,29.94,West,272,7.0,12.0,85,0.00,FEW,,0.04,132.0,WeatherDisplay:10.37,2013-11-11 14:30:00,
2013-11-11 14:35:00,51.5,46.8,29.94,West,276,10.0,22.0,84,0.00,FEW,,0.04,67.0,WeatherDisplay:10.37,2013-11-11 14:35:00,
2013-11-11 14:40:00,51.5,46.2,29.94,West,279,7.0,12.0,82,0.00,SCT,,0.04,30.0,WeatherDisplay:10.37,2013-11-11 14:40:00,
2013-11-11 14:45:00,51.3,46.0,29.94,West,280,12.0,20.0,82,0.00,BKN,,0.04,19.0,WeatherDisplay:10.37,2013-11-11 14:45:00,
2013-11-11 14:50:00,50.9,45.6,29.94,WNW,283,9.0,22.0,82,0.00,BKN,,0.04,21.0,WeatherDisplay:10.37,2013-11-11 14:50:00,
2013-11-11 14:55:00,50.7,45.7,29.94,West,275,8.0,13.0,83,0.00,BKN,,0.04,26.0,WeatherDisplay:10.37,2013-11-11 14:55:00,
2013-11-11 15:00:00,50.5,45.5,29.95,WSW,253,6.0,16.0,83,0.00,BKN,,0.04,30.0,WeatherDisplay:10.37,2013-11-11 15:00:00,
2013-11-11 15:05:00,50.3,45.6,29.95,WSW,247,7.0,14.0,84,0.00,BKN,,0.04,40.0,WeatherDisplay:10.37,2013-11-11 15:05:00,
2013-11-11 15:10:00,50.2,45.6,29.96,WSW,253,7.0,14.0,84,0.00,BKN,,0.04,42.0,WeatherDisplay:10.37,2013-11-11 15:10:00,
2013-11-11 15:15:00,50.1,45.5,29.96,WSW,248,6.0,13.0,84,0.00,BKN,,0.04,35.0,WeatherDisplay:10.37,2013-11-11 15:15:00,
2013-11-11 15:20:00,50.0,45.0,29.96,SW,234,7.0,14.0,83,0.00,BKN,,0.04,30.0,WeatherDisplay:10.37,2013-11-11 15:20:00,
2013-11-11 15:30:00,49.7,44.7,29.96,SW,232,6.0,9.0,83,0.00,BKN,,0.04,19.0,WeatherDisplay:10.37,2013-11-11 15:30:00,
2013-11-11 15:35:00,49.5,44.5,29.96,SW,228,7.0,9.0,83,0.00,BKN,,0.04,21.0,WeatherDisplay:10.37,2013-11-11 15:35:00,
2013-11-11 15:40:00,49.3,44.6,29.97,SW,230,6.0,12.0,84,0.00,BKN,,0.04,18.0,WeatherDisplay:10.37,2013-11-11 15:40:00,
2013-11-11 15:45:00,49.0,44.4,29.97,SW,233,7.0,12.0,84,0.00,BKN,,0.04,16.0,WeatherDisplay:10.37,2013-11-11 15:45:00,
2013-11-11 15:50:00,48.8,44.2,29.97,SW,229,6.0,10.0,84,0.00,BKN,,0.04,14.0,WeatherDisplay:10.37,2013-11-11 15:50:00,
2013-11-11 15:55:00,48.6,44.0,29.97,SW,231,5.0,8.0,84,0.00,BKN,,0.04,7.0,WeatherDisplay:10.37,2013-11-11 15:55:00,
2013-11-11 16:00:00,48.4,44.1,29.97,SW,226,7.0,12.0,85,0.00,BKN,,0.04,5.0,WeatherDisplay:10.37,2013-11-11 16:00:00,
2013-11-11 16:05:00,48.2,43.9,29.97,SW,227,6.0,8.0,85,0.00,BKN,,0.04,5.0,WeatherDisplay:10.37,2013-11-11 16:05:00,
2013-11-11 16:10:00,48.0,44.0,29.98,SW,225,6.0,9.0,86,0.00,OVC,,0.04,0.0,WeatherDisplay:10.37,2013-11-11 16:10:00,
2013-11-11 16:15:00,47.9,43.9,29.98,SW,223,5.0,9.0,86,0.00,OVC,,0.04,0.0,WeatherDisplay:10.37,2013-11-11 16:15:00,
2013-11-11 16:20:00,47.8,44.1,29.99,SW,225,5.0,9.0,87,0.00,OVC,,0.04,0.0,WeatherDisplay:10.37,2013-11-11 16:20:00,
2013-11-11 16:25:00,47.7,44.0,29.99,SW,224,7.0,9.0,87,0.00,OVC,,0.04,0.0,WeatherDisplay:10.37,2013-11-11 16:25:00,
2013-11-11 16:30:00,47.5,43.8,29.99,SW,227,5.0,7.0,87,0.00,OVC,,0.04,0.0,WeatherDisplay:10.37,2013-11-11 16:30:00,
2013-11-11 16:40:00,47.4,44.0,29.99,SW,222,8.0,14.0,88,0.00,OVC,,0.04,0.0,WeatherDisplay:10.37,2013-11-11 16:40:00,
2013-11-11 16:55:00,47.2,44.1,29.99,SW,222,6.0,9.0,89,0.00,CLR,,0.04,0.0,WeatherDisplay:10.37,2013-11-11 16:55:00,
2013-11-11 17:00:00,47.2,44.1,29.99,SW,231,2.0,9.0,89,0.00,CLR,,0.04,0.0,WeatherDisplay:10.37,2013-11-11 17:00:00,
2013-11-11 17:05:00,47.1,44.0,30.00,SW,230,5.0,9.0,89,0.00,CLR,,0.04,0.0,WeatherDisplay:10.37,2013-11-11 17:05:00,
2013-11-11 17:10:00,47.1,44.0,30.00,SW,222,6.0,9.0,89,0.00,CLR,,0.04,0.0,WeatherDisplay:10.37,2013-11-11 17:10:00,
2013-11-11 17:20:00,47.0,43.9,30.00,SW,216,3.0,6.0,89,0.00,CLR,,0.04,0.0,WeatherDisplay:10.37,2013-11-11 17:20:00,
2013-11-11 17:25:00,46.9,43.8,30.00,SSW,207,5.0,9.0,89,0.00,CLR,,0.04,0.0,WeatherDisplay:10.37,2013-11-11 17:25:00,
2013-11-11 17:30:00,46.9,43.8,30.00,SSW,211,5.0,8.0,89,0.00,CLR,,0.04,0.0,WeatherDisplay:10.37,2013-11-11 17:30:00,
2013-11-11 17:35:00,46.8,43.7,30.00,SW,215,3.0,8.0,89,0.00,CLR,,0.04,0.0,WeatherDisplay:10.37,2013-11-11 17:35:00,
2013-11-11 17:40:00,46.8,43.7,30.00,SSW,212,5.0,9.0,89,0.00,CLR,,0.04,0.0,WeatherDisplay:10.37,2013-11-11 17:40:00,
2013-11-11 17:45:00,46.8,44.0,30.00,SW,215,5.0,10.0,90,0.00,CLR,,0.04,0.0,WeatherDisplay:10.37,2013-11-11 17:45:00,
2013-11-11 17:50:00,46.7,43.9,30.00,SW,219,5.0,9.0,90,0.00,CLR,,0.04,0.0,WeatherDisplay:10.37,2013-11-11 17:50:00,
2013-11-11 17:55:00,46.7,43.9,30.00,SSW,212,6.0,9.0,90,0.00,CLR,,0.04,0.0,WeatherDisplay:10.37,2013-11-11 17:55:00,
2013-11-11 18:05:00,46.7,43.9,30.00,SW,215,6.0,8.0,90,0.00,CLR,,0.04,0.0,WeatherDisplay:10.37,2013-11-11 18:05:00,
2013-11-11 18:10:00,46.7,44.2,30.00,SW,214,6.0,8.0,91,0.00,CLR,,0.04,0.0,WeatherDisplay:10.37,2013-11-11 18:10:00,
2013-11-11 18:20:00,46.6,44.1,30.00,SW,228,7.0,12.0,91,0.00,CLR,,0.04,0.0,WeatherDisplay:10.37,2013-11-11 18:20:00,
2013-11-11 18:25:00,46.7,44.2,30.00,SW,228,6.0,10.0,91,0.00,CLR,,0.04,0.0,WeatherDisplay:10.37,2013-11-11 18:25:00,
2013-11-11 18:30:00,46.8,44.6,30.01,SW,226,7.0,12.0,92,0.00,CLR,,0.04,0.0,WeatherDisplay:10.37,2013-11-11 18:30:00,
2013-11-11 18:40:00,47.2,44.7,30.01,SW,219,7.0,11.0,91,0.00,CLR,,0.04,0.0,WeatherDisplay:10.37,2013-11-11 18:40:00,
2013-11-11 18:45:00,47.3,44.8,30.00,SW,215,6.0,10.0,91,0.00,CLR,,0.04,0.0,WeatherDisplay:10.37,2013-11-11 18:45:00,
2013-11-11 18:50:00,47.4,45.0,30.00,SW,217,8.0,12.0,91,0.00,CLR,,0.04,0.0,WeatherDisplay:10.37,2013-11-11 18:50:00,
2013-11-11 18:55:00,47.6,45.1,30.00,SW,214,6.0,9.0,91,0.00,CLR,,0.04,0.0,WeatherDisplay:10.37,2013-11-11 18:55:00,
2013-11-11 19:00:00,47.6,45.1,30.01,SW,214,6.0,10.0,91,0.00,CLR,,0.04,0.0,WeatherDisplay:10.37,2013-11-11 19:00:00,
2013-11-11 19:05:00,47.6,45.1,30.01,SW,220,6.0,11.0,91,0.00,CLR,,0.04,0.0,WeatherDisplay:10.37,2013-11-11 19:05:00,
2013-11-11 19:15:00,47.6,45.1,30.01,SW,230,6.0,14.0,91,0.00,CLR,,0.04,0.0,WeatherDisplay:10.37,2013-11-11 19:15:00,
2013-11-11 19:20:00,47.6,45.4,30.01,SW,225,9.0,14.0,92,0.00,CLR,,0.04,0.0,WeatherDisplay:10.37,2013-11-11 19:20:00,
2013-11-11 19:25:00,47.7,45.5,30.01,SW,235,6.0,12.0,92,0.00,CLR,,0.04,0.0,WeatherDisplay:10.37,2013-11-11 19:25:00,
2013-11-11 19:30:00,47.8,45.6,30.01,WSW,237,6.0,11.0,92,0.00,CLR,,0.04,0.0,WeatherDisplay:10.37,2013-11-11 19:30:00,
2013-11-11 19:40:00,47.9,45.7,30.02,SW,235,3.0,10.0,92,0.00,CLR,,0.04,0.0,WeatherDisplay:10.37,2013-11-11 19:40:00,
2013-11-11 19:45:00,47.9,45.7,30.02,WSW,254,6.0,12.0,92,0.00,CLR,,0.04,0.0,WeatherDisplay:10.37,2013-11-11 19:45:00,
2013-11-11 19:50:00,47.9,45.7,30.02,WSW,240,3.0,12.0,92,0.00,CLR,,0.04,0.0,WeatherDisplay:10.37,2013-11-11 19:50:00,
2013-11-11 19:55:00,47.8,45.6,30.02,SW,228,7.0,14.0,92,0.00,CLR,,0.04,0.0,WeatherDisplay:10.37,2013-11-11 19:55:00,
2013-11-11 20:05:00,47.7,45.2,30.02,SW,233,6.0,12.0,91,0.00,CLR,,0.04,0.0,WeatherDisplay:10.37,2013-11-11 20:05:00,
2013-11-11 20:15:00,47.5,45.0,30.02,WSW,237,6.0,13.0,91,0.00,CLR,,0.04,0.0,WeatherDisplay:10.37,2013-11-11 20:15:00,
2013-11-11 20:20:00,47.5,45.0,30.02,SW,225,7.0,15.0,91,0.00,CLR,,0.04,0.0,WeatherDisplay:10.37,2013-11-11 20:20:00,
2013-11-11 20:25:00,47.5,45.3,30.02,SW,220,6.0,10.0,92,0.00,CLR,,0.04,0.0,WeatherDisplay:10.37,2013-11-11 20:25:00,
2013-11-11 20:30:00,47.4,45.2,30.02,SW,220,6.0,10.0,92,0.00,CLR,,0.04,0.0,WeatherDisplay:10.37,2013-11-11 20:30:00,
2013-11-11 20:35:00,47.4,45.2,30.02,SW,226,6.0,12.0,92,0.00,CLR,,0.04,0.0,WeatherDisplay:10.37,2013-11-11 20:35:00,
2013-11-11 20:40:00,47.4,45.2,30.02,SW,224,8.0,12.0,92,0.00,CLR,,0.04,0.0,WeatherDisplay:10.37,2013-11-11 20:40:00,
2013-11-11 20:50:00,47.4,45.2,30.02,SW,228,6.0,12.0,92,0.00,CLR,,0.04,0.0,WeatherDisplay:10.37,2013-11-11 20:50:00,
2013-11-11 20:55:00,47.4,45.2,30.02,SW,224,7.0,13.0,92,0.00,CLR,,0.04,0.0,WeatherDisplay:10.37,2013-11-11 20:55:00,
2013-11-11 21:05:00,47.5,45.3,30.02,SW,226,8.0,16.0,92,0.00,CLR,,0.04,0.0,WeatherDisplay:10.37,2013-11-11 21:05:00,
2013-11-11 21:10:00,47.6,45.4,30.02,SW,231,7.0,14.0,92,0.00,CLR,,0.04,0.0,WeatherDisplay:10.37,2013-11-11 21:10:00,
2013-11-11 21:20:00,47.8,45.6,30.02,SW,217,7.0,16.0,92,0.00,CLR,,0.04,0.0,WeatherDisplay:10.37,2013-11-11 21:20:00,
2013-11-11 21:25:00,47.9,45.7,30.02,SW,224,7.0,14.0,92,0.01,RA,,0.05,0.0,WeatherDisplay:10.37,2013-11-11 21:25:00,
2013-11-11 21:30:00,47.9,45.7,30.02,SW,219,5.0,9.0,92,0.00,RA,,0.05,0.0,WeatherDisplay:10.37,2013-11-11 21:30:00,
2013-11-11 21:35:00,47.9,46.0,30.02,SW,224,7.0,12.0,93,0.00,RA,,0.05,0.0,WeatherDisplay:10.37,2013-11-11 21:35:00,
2013-11-11 21:40:00,47.8,45.9,30.02,SW,224,8.0,13.0,93,0.00,CLR,,0.05,0.0,WeatherDisplay:10.37,2013-11-11 21:40:00,
2013-11-11 21:45:00,47.7,45.8,30.02,SW,216,9.0,13.0,93,0.00,CLR,,0.05,0.0,WeatherDisplay:10.37,2013-11-11 21:45:00,
2013-11-11 21:50:00,47.7,45.8,30.02,SW,223,12.0,18.0,93,0.00,CLR,,0.05,0.0,WeatherDisplay:10.37,2013-11-11 21:50:00,
2013-11-11 21:55:00,47.8,45.9,30.02,SW,227,10.0,18.0,93,0.00,CLR,,0.05,0.0,WeatherDisplay:10.37,2013-11-11 21:55:00,
2013-11-11 22:00:00,47.7,45.8,30.02,SW,222,9.0,15.0,93,0.00,CLR,,0.05,0.0,WeatherDisplay:10.37,2013-11-11 22:00:00,
2013-11-11 22:05:00,47.7,45.8,30.02,SW,224,12.0,17.0,93,0.01,RA,,0.05,0.0,WeatherDisplay:10.37,2013-11-11 22:05:00,
2013-11-11 22:10:00,47.7,45.8,30.02,SW,228,6.0,17.0,93,0.00,RA,,0.05,0.0,WeatherDisplay:10.37,2013-11-11 22:10:00,
2013-11-11 22:20:00,47.6,45.7,30.02,SW,220,8.0,12.0,93,0.00,CLR,,0.05,0.0,WeatherDisplay:10.37,2013-11-11 22:20:00,
2013-11-11 22:25:00,47.5,45.6,30.02,SW,232,6.0,12.0,93,0.00,CLR,,0.05,0.0,WeatherDisplay:10.37,2013-11-11 22:25:00,
2013-11-11 22:30:00,47.4,45.5,30.03,SW,233,6.0,12.0,93,0.00,CLR,,0.05,0.0,WeatherDisplay:10.37,2013-11-11 22:30:00,
2013-11-11 22:35:00,47.4,45.5,30.02,SW,226,7.0,10.0,93,0.00,CLR,,0.05,0.0,WeatherDisplay:10.37,2013-11-11 22:35:00,
2013-11-11 22:40:00,47.3,45.4,30.02,SW,230,6.0,10.0,93,0.00,CLR,,0.05,0.0,WeatherDisplay:10.37,2013-11-11 22:40:00,
2013-11-11 22:45:00,47.3,45.4,30.02,SW,232,8.0,12.0,93,0.00,CLR,,0.05,0.0,WeatherDisplay:10.37,2013-11-11 22:45:00,
2013-11-11 22:55:00,47.3,45.4,30.03,SW,225,7.0,12.0,93,0.00,CLR,,0.05,0.0,WeatherDisplay:10.37,2013-11-11 22:55:00,
2013-11-11 23:00:00,47.4,45.5,30.03,SW,220,7.0,12.0,93,0.00,CLR,,0.05,0.0,WeatherDisplay:10.37,2013-11-11 23:00:00,
2013-11-11 23:05:00,47.4,45.5,30.03,SW,223,6.0,9.0,93,0.00,CLR,,0.05,0.0,WeatherDisplay:10.37,2013-11-11 23:05:00,
2013-11-11 23:10:00,47.4,45.5,30.03,SW,228,5.0,9.0,93,0.00,CLR,,0.05,0.0,WeatherDisplay:10.37,2013-11-11 23:10:00,
2013-11-11 23:15:00,47.4,45.4,30.03,SW,222,6.0,8.0,93,0.01,RA,,0.06,0.0,WeatherDisplay:10.37,2013-11-11 23:15:00,
2013-11-11 23:20:00,47.3,45.7,30.03,SW,226,3.0,8.0,94,0.00,RA,,0.06,0.0,WeatherDisplay:10.37,2013-11-11 23:20:00,
2013-11-11 23:25:00,47.3,45.7,30.03,SW,232,5.0,6.0,94,0.00,RA,,0.06,0.0,WeatherDisplay:10.37,2013-11-11 23:25:00,
2013-11-11 23:30:00,47.2,45.6,30.03,SW,227,3.0,6.0,94,0.00,CLR,,0.06,0.0,WeatherDisplay:10.37,2013-11-11 23:30:00,
2013-11-11 23:35:00,47.2,45.6,30.03,SW,232,5.0,7.0,94,0.00,CLR,,0.06,0.0,WeatherDisplay:10.37,2013-11-11 23:35:00,
2013-11-11 23:40:00,47.2,45.5,30.03,WSW,238,2.0,7.0,94,0.00,CLR,,0.06,0.0,WeatherDisplay:10.37,2013-11-11 23:40:00,
2013-11-11 23:50:00,47.1,45.5,30.03,SW,215,2.0,5.0,94,0.00,CLR,,0.06,0.0,WeatherDisplay:10.37,2013-11-11 23:50:00,
2013-11-11 23:55:00,47.1,45.7,30.03,SSW,211,3.0,7.0,95,0.00,CLR,,0.06,0.0,WeatherDisplay:10.37,2013-11-11 23:55:00,